sensor_id;sensor_type;location;lat;lon;timestamp;temperature;humidity
59923;DHT22;45778;51.142;3.732;2022-12-24T00:01:22;10.30;99.90
59923;DHT22;45778;51.142;3.732;2022-12-24T00:03:48;10.40;99.90
59923;DHT22;45778;51.142;3.732;2022-12-24T00:06:20;10.40;99.90
59923;DHT22;45778;51.142;3.732;2022-12-24T00:08:46;10.50;99.90
59923;DHT22;45778;51.142;3.732;2022-12-24T00:11:12;10.60;99.90
59923;DHT22;45778;51.142;3.732;2022-12-24T00:13:38;10.60;99.90
59923;DHT22;45778;51.142;3.732;2022-12-24T00:16:04;10.60;99.90
59923;DHT22;45778;51.142;3.732;2022-12-24T00:18:30;10.60;99.90
59923;DHT22;45778;51.142;3.732;2022-12-24T00:20:56;10.60;99.90
59923;DHT22;45778;51.142;3.732;2022-12-24T00:23:22;10.60;99.90
59923;DHT22;45778;51.142;3.732;2022-12-24T00:25:47;10.60;99.90
59923;DHT22;45778;51.142;3.732;2022-12-24T00:28:14;10.60;99.90
59923;DHT22;45778;51.142;3.732;2022-12-24T00:30:41;10.50;99.90
59923;DHT22;45778;51.142;3.732;2022-12-24T00:33:07;10.50;99.90
59923;DHT22;45778;51.142;3.732;2022-12-24T00:35:36;10.50;99.90
59923;DHT22;45778;51.142;3.732;2022-12-24T00:38:03;10.50;99.90
59923;DHT22;45778;51.142;3.732;2022-12-24T00:40:29;10.50;99.90
59923;DHT22;45778;51.142;3.732;2022-12-24T00:42:55;10.50;99.90
59923;DHT22;45778;51.142;3.732;2022-12-24T00:45:21;10.50;99.90
59923;DHT22;45778;51.142;3.732;2022-12-24T00:47:47;10.60;99.90
59923;DHT22;45778;51.142;3.732;2022-12-24T00:50:14;10.60;99.90
59923;DHT22;45778;51.142;3.732;2022-12-24T00:52:39;10.60;99.90
59923;DHT22;45778;51.142;3.732;2022-12-24T00:55:06;10.60;99.90
59923;DHT22;45778;51.142;3.732;2022-12-24T00:57:32;10.60;99.90
59923;DHT22;45778;51.142;3.732;2022-12-24T00:59:57;10.60;99.90
59923;DHT22;45778;51.142;3.732;2022-12-24T01:02:23;10.70;99.90
59923;DHT22;45778;51.142;3.732;2022-12-24T01:04:49;10.70;99.90
59923;DHT22;45778;51.142;3.732;2022-12-24T01:07:35;10.60;99.90
59923;DHT22;45778;51.142;3.732;2022-12-24T01:10:00;10.70;99.90
59923;DHT22;45778;51.142;3.732;2022-12-24T01:12:26;10.70;99.90
59923;DHT22;45778;51.142;3.732;2022-12-24T01:14:52;10.60;99.90
59923;DHT22;45778;51.142;3.732;2022-12-24T01:17:17;10.60;99.90
59923;DHT22;45778;51.142;3.732;2022-12-24T01:19:43;10.70;99.90
59923;DHT22;45778;51.142;3.732;2022-12-24T01:22:09;10.60;99.90
59923;DHT22;45778;51.142;3.732;2022-12-24T01:24:34;10.50;99.90
59923;DHT22;45778;51.142;3.732;2022-12-24T01:27:00;10.50;99.90
59923;DHT22;45778;51.142;3.732;2022-12-24T01:29:26;10.50;99.90
59923;DHT22;45778;51.142;3.732;2022-12-24T01:31:51;10.60;99.90
59923;DHT22;45778;51.142;3.732;2022-12-24T01:34:17;10.60;99.90
59923;DHT22;45778;51.142;3.732;2022-12-24T01:36:43;10.60;99.90
59923;DHT22;45778;51.142;3.732;2022-12-24T01:39:09;10.60;99.90
59923;DHT22;45778;51.142;3.732;2022-12-24T01:41:34;10.60;99.90
59923;DHT22;45778;51.142;3.732;2022-12-24T01:44:31;10.50;99.90
59923;DHT22;45778;51.142;3.732;2022-12-24T01:47:03;10.50;99.90
59923;DHT22;45778;51.142;3.732;2022-12-24T01:49:29;10.50;99.90
59923;DHT22;45778;51.142;3.732;2022-12-24T01:52:10;10.50;99.90
59923;DHT22;45778;51.142;3.732;2022-12-24T01:54:43;10.50;99.90
59923;DHT22;45778;51.142;3.732;2022-12-24T01:57:14;10.50;99.90
59923;DHT22;45778;51.142;3.732;2022-12-24T01:59:46;10.50;99.90
59923;DHT22;45778;51.142;3.732;2022-12-24T02:02:13;10.50;99.90
59923;DHT22;45778;51.142;3.732;2022-12-24T02:04:45;10.50;99.90
59923;DHT22;45778;51.142;3.732;2022-12-24T02:07:14;10.50;99.90
59923;DHT22;45778;51.142;3.732;2022-12-24T02:09:40;10.60;99.90
59923;DHT22;45778;51.142;3.732;2022-12-24T02:12:07;10.60;99.90
59923;DHT22;45778;51.142;3.732;2022-12-24T02:14:33;10.60;99.90
59923;DHT22;45778;51.142;3.732;2022-12-24T02:22:53;10.60;99.90
59923;DHT22;45778;51.142;3.732;2022-12-24T02:28:12;10.60;99.90
59923;DHT22;45778;51.142;3.732;2022-12-24T02:30:51;10.70;99.90
59923;DHT22;45778;51.142;3.732;2022-12-24T02:36:30;10.70;99.90
59923;DHT22;45778;51.142;3.732;2022-12-24T02:41:32;10.70;99.90
59923;DHT22;45778;51.142;3.732;2022-12-24T02:44:20;10.60;99.90
59923;DHT22;45778;51.142;3.732;2022-12-24T02:46:47;10.60;99.90
59923;DHT22;45778;51.142;3.732;2022-12-24T02:49:13;10.60;99.90
59923;DHT22;45778;51.142;3.732;2022-12-24T02:51:39;10.60;99.90
59923;DHT22;45778;51.142;3.732;2022-12-24T02:54:05;10.60;99.90
59923;DHT22;45778;51.142;3.732;2022-12-24T02:56:50;10.60;99.90
59923;DHT22;45778;51.142;3.732;2022-12-24T02:59:25;10.50;99.90
59923;DHT22;45778;51.142;3.732;2022-12-24T03:08:43;10.40;99.90
59923;DHT22;45778;51.142;3.732;2022-12-24T03:11:01;10.30;99.90
59923;DHT22;45778;51.142;3.732;2022-12-24T03:13:28;10.40;99.90
59923;DHT22;45778;51.142;3.732;2022-12-24T03:15:54;10.40;99.90
59923;DHT22;45778;51.142;3.732;2022-12-24T03:18:23;10.40;99.90
59923;DHT22;45778;51.142;3.732;2022-12-24T03:21:00;10.40;99.90
59923;DHT22;45778;51.142;3.732;2022-12-24T03:23:28;10.40;99.90
59923;DHT22;45778;51.142;3.732;2022-12-24T03:25:54;10.40;99.90
59923;DHT22;45778;51.142;3.732;2022-12-24T03:28:23;10.30;99.90
59923;DHT22;45778;51.142;3.732;2022-12-24T03:30:50;10.30;99.90
59923;DHT22;45778;51.142;3.732;2022-12-24T03:33:16;10.30;99.90
59923;DHT22;45778;51.142;3.732;2022-12-24T03:35:43;10.30;99.90
59923;DHT22;45778;51.142;3.732;2022-12-24T03:38:08;10.20;99.90
59923;DHT22;45778;51.142;3.732;2022-12-24T03:40:34;10.10;99.90
59923;DHT22;45778;51.142;3.732;2022-12-24T03:43:00;10.10;99.90
59923;DHT22;45778;51.142;3.732;2022-12-24T03:45:26;10.10;99.90
59923;DHT22;45778;51.142;3.732;2022-12-24T03:47:52;10.10;99.90
59923;DHT22;45778;51.142;3.732;2022-12-24T03:50:17;10.10;99.90
59923;DHT22;45778;51.142;3.732;2022-12-24T03:52:43;10.10;99.90
59923;DHT22;45778;51.142;3.732;2022-12-24T03:55:09;10.10;99.90
59923;DHT22;45778;51.142;3.732;2022-12-24T03:57:34;10.10;99.90
59923;DHT22;45778;51.142;3.732;2022-12-24T04:00:00;10.00;99.90
59923;DHT22;45778;51.142;3.732;2022-12-24T04:02:26;10.00;99.90
59923;DHT22;45778;51.142;3.732;2022-12-24T04:04:52;10.00;99.90
59923;DHT22;45778;51.142;3.732;2022-12-24T04:07:18;10.00;99.90
59923;DHT22;45778;51.142;3.732;2022-12-24T04:09:43;10.00;99.90
59923;DHT22;45778;51.142;3.732;2022-12-24T04:12:09;10.00;99.90
59923;DHT22;45778;51.142;3.732;2022-12-24T04:14:34;10.00;99.90
59923;DHT22;45778;51.142;3.732;2022-12-24T04:17:00;10.00;99.90
59923;DHT22;45778;51.142;3.732;2022-12-24T04:19:26;10.00;99.90
59923;DHT22;45778;51.142;3.732;2022-12-24T04:21:52;10.00;99.90
59923;DHT22;45778;51.142;3.732;2022-12-24T04:24:17;10.00;99.90
59923;DHT22;45778;51.142;3.732;2022-12-24T04:26:43;10.00;99.90
59923;DHT22;45778;51.142;3.732;2022-12-24T04:29:09;10.00;99.90
59923;DHT22;45778;51.142;3.732;2022-12-24T04:31:34;10.10;99.90
59923;DHT22;45778;51.142;3.732;2022-12-24T04:34:00;10.10;99.90
59923;DHT22;45778;51.142;3.732;2022-12-24T04:36:26;10.10;99.90
59923;DHT22;45778;51.142;3.732;2022-12-24T04:38:52;10.00;99.90
59923;DHT22;45778;51.142;3.732;2022-12-24T04:41:20;10.10;99.90
59923;DHT22;45778;51.142;3.732;2022-12-24T04:43:46;10.10;99.90
59923;DHT22;45778;51.142;3.732;2022-12-24T04:46:18;10.00;99.90
59923;DHT22;45778;51.142;3.732;2022-12-24T04:48:45;10.00;99.90
59923;DHT22;45778;51.142;3.732;2022-12-24T04:51:12;9.90;99.90
59923;DHT22;45778;51.142;3.732;2022-12-24T04:53:39;10.00;99.90
59923;DHT22;45778;51.142;3.732;2022-12-24T04:56:12;10.00;99.90
59923;DHT22;45778;51.142;3.732;2022-12-24T04:58:38;10.00;99.90
59923;DHT22;45778;51.142;3.732;2022-12-24T05:01:06;10.00;99.90
59923;DHT22;45778;51.142;3.732;2022-12-24T05:03:32;10.00;99.90
59923;DHT22;45778;51.142;3.732;2022-12-24T05:06:02;10.10;99.90
59923;DHT22;45778;51.142;3.732;2022-12-24T05:08:28;10.10;99.90
59923;DHT22;45778;51.142;3.732;2022-12-24T05:10:56;10.10;99.90
59923;DHT22;45778;51.142;3.732;2022-12-24T05:13:21;10.10;99.90
59923;DHT22;45778;51.142;3.732;2022-12-24T05:15:47;10.10;99.90
59923;DHT22;45778;51.142;3.732;2022-12-24T05:18:13;10.10;99.90
59923;DHT22;45778;51.142;3.732;2022-12-24T05:20:40;10.10;99.90
59923;DHT22;45778;51.142;3.732;2022-12-24T05:23:06;10.10;99.90
59923;DHT22;45778;51.142;3.732;2022-12-24T05:25:50;10.20;99.90
59923;DHT22;45778;51.142;3.732;2022-12-24T05:28:34;10.20;99.90
59923;DHT22;45778;51.142;3.732;2022-12-24T05:31:00;10.20;99.90
59923;DHT22;45778;51.142;3.732;2022-12-24T05:33:26;10.20;99.90
59923;DHT22;45778;51.142;3.732;2022-12-24T05:35:52;10.30;99.90
59923;DHT22;45778;51.142;3.732;2022-12-24T05:38:17;10.30;99.90
59923;DHT22;45778;51.142;3.732;2022-12-24T05:40:43;10.30;99.90
59923;DHT22;45778;51.142;3.732;2022-12-24T05:43:09;10.40;99.90
59923;DHT22;45778;51.142;3.732;2022-12-24T05:45:35;10.40;99.90
59923;DHT22;45778;51.142;3.732;2022-12-24T05:48:00;10.40;99.90
59923;DHT22;45778;51.142;3.732;2022-12-24T05:50:26;10.40;99.90
59923;DHT22;45778;51.142;3.732;2022-12-24T05:52:52;10.40;99.90
59923;DHT22;45778;51.142;3.732;2022-12-24T05:55:17;10.30;99.90
59923;DHT22;45778;51.142;3.732;2022-12-24T05:57:43;10.30;99.90
59923;DHT22;45778;51.142;3.732;2022-12-24T06:00:09;10.20;99.90
59923;DHT22;45778;51.142;3.732;2022-12-24T06:02:35;10.30;99.90
59923;DHT22;45778;51.142;3.732;2022-12-24T06:05:00;10.30;99.90
59923;DHT22;45778;51.142;3.732;2022-12-24T06:07:26;10.20;99.90
59923;DHT22;45778;51.142;3.732;2022-12-24T06:09:52;10.30;99.90
59923;DHT22;45778;51.142;3.732;2022-12-24T06:12:17;10.20;99.90
59923;DHT22;45778;51.142;3.732;2022-12-24T06:14:43;10.20;99.90
59923;DHT22;45778;51.142;3.732;2022-12-24T06:17:09;10.20;99.90
59923;DHT22;45778;51.142;3.732;2022-12-24T06:19:34;10.20;99.90
59923;DHT22;45778;51.142;3.732;2022-12-24T06:22:00;10.20;99.90
59923;DHT22;45778;51.142;3.732;2022-12-24T06:24:26;10.10;99.90
59923;DHT22;45778;51.142;3.732;2022-12-24T06:26:51;10.20;99.90
59923;DHT22;45778;51.142;3.732;2022-12-24T06:29:17;10.20;99.90
59923;DHT22;45778;51.142;3.732;2022-12-24T06:31:43;10.10;99.90
59923;DHT22;45778;51.142;3.732;2022-12-24T06:34:08;10.10;99.90
59923;DHT22;45778;51.142;3.732;2022-12-24T06:36:34;10.10;99.90
59923;DHT22;45778;51.142;3.732;2022-12-24T06:39:00;10.20;99.90
59923;DHT22;45778;51.142;3.732;2022-12-24T06:41:25;10.20;99.90
59923;DHT22;45778;51.142;3.732;2022-12-24T06:43:52;10.30;99.90
59923;DHT22;45778;51.142;3.732;2022-12-24T06:46:18;10.30;99.90
59923;DHT22;45778;51.142;3.732;2022-12-24T06:48:44;10.30;99.90
59923;DHT22;45778;51.142;3.732;2022-12-24T06:51:11;10.30;99.90
59923;DHT22;45778;51.142;3.732;2022-12-24T06:53:37;10.30;99.90
59923;DHT22;45778;51.142;3.732;2022-12-24T06:56:08;10.30;99.90
59923;DHT22;45778;51.142;3.732;2022-12-24T06:58:35;10.40;99.90
59923;DHT22;45778;51.142;3.732;2022-12-24T07:01:02;10.40;99.90
59923;DHT22;45778;51.142;3.732;2022-12-24T07:03:28;10.40;99.90
59923;DHT22;45778;51.142;3.732;2022-12-24T07:05:54;10.40;99.90
59923;DHT22;45778;51.142;3.732;2022-12-24T07:08:20;10.50;99.90
59923;DHT22;45778;51.142;3.732;2022-12-24T07:10:48;10.40;99.90
59923;DHT22;45778;51.142;3.732;2022-12-24T07:13:14;10.40;99.90
59923;DHT22;45778;51.142;3.732;2022-12-24T07:15:40;10.50;99.90
59923;DHT22;45778;51.142;3.732;2022-12-24T07:18:06;10.50;99.90
59923;DHT22;45778;51.142;3.732;2022-12-24T07:20:32;10.50;99.90
59923;DHT22;45778;51.142;3.732;2022-12-24T07:22:57;10.50;99.90
59923;DHT22;45778;51.142;3.732;2022-12-24T07:25:23;10.50;99.90
59923;DHT22;45778;51.142;3.732;2022-12-24T07:27:49;10.40;99.90
59923;DHT22;45778;51.142;3.732;2022-12-24T07:30:15;10.40;99.90
59923;DHT22;45778;51.142;3.732;2022-12-24T07:32:41;10.30;99.90
59923;DHT22;45778;51.142;3.732;2022-12-24T07:35:07;10.30;99.90
59923;DHT22;45778;51.142;3.732;2022-12-24T07:37:33;10.40;99.90
59923;DHT22;45778;51.142;3.732;2022-12-24T07:39:58;10.40;99.90
59923;DHT22;45778;51.142;3.732;2022-12-24T07:42:24;10.40;99.90
59923;DHT22;45778;51.142;3.732;2022-12-24T07:44:50;10.50;99.90
59923;DHT22;45778;51.142;3.732;2022-12-24T07:47:15;10.40;99.90
59923;DHT22;45778;51.142;3.732;2022-12-24T07:49:41;10.40;99.90
59923;DHT22;45778;51.142;3.732;2022-12-24T07:52:07;10.50;99.90
59923;DHT22;45778;51.142;3.732;2022-12-24T07:54:33;10.50;99.90
59923;DHT22;45778;51.142;3.732;2022-12-24T07:56:58;10.50;99.90
59923;DHT22;45778;51.142;3.732;2022-12-24T07:59:24;10.50;99.90
59923;DHT22;45778;51.142;3.732;2022-12-24T08:01:50;10.50;99.90
59923;DHT22;45778;51.142;3.732;2022-12-24T08:04:16;10.50;99.90
59923;DHT22;45778;51.142;3.732;2022-12-24T08:06:41;10.60;99.90
59923;DHT22;45778;51.142;3.732;2022-12-24T08:09:07;10.60;99.90
59923;DHT22;45778;51.142;3.732;2022-12-24T08:11:33;10.70;99.90
59923;DHT22;45778;51.142;3.732;2022-12-24T08:13:58;10.70;99.90
59923;DHT22;45778;51.142;3.732;2022-12-24T08:16:24;10.60;99.90
59923;DHT22;45778;51.142;3.732;2022-12-24T08:18:51;10.60;99.90
59923;DHT22;45778;51.142;3.732;2022-12-24T08:21:17;10.70;99.90
59923;DHT22;45778;51.142;3.732;2022-12-24T08:23:42;10.70;99.90
59923;DHT22;45778;51.142;3.732;2022-12-24T08:26:09;10.70;99.90
59923;DHT22;45778;51.142;3.732;2022-12-24T08:28:36;10.70;99.90
59923;DHT22;45778;51.142;3.732;2022-12-24T08:31:02;10.70;99.90
59923;DHT22;45778;51.142;3.732;2022-12-24T08:33:28;10.70;99.90
59923;DHT22;45778;51.142;3.732;2022-12-24T08:35:54;10.70;99.90
59923;DHT22;45778;51.142;3.732;2022-12-24T08:38:20;10.60;99.90
59923;DHT22;45778;51.142;3.732;2022-12-24T08:40:46;10.60;99.90
59923;DHT22;45778;51.142;3.732;2022-12-24T08:43:15;10.60;99.90
59923;DHT22;45778;51.142;3.732;2022-12-24T08:45:40;10.50;99.90
59923;DHT22;45778;51.142;3.732;2022-12-24T08:48:08;10.50;99.90
59923;DHT22;45778;51.142;3.732;2022-12-24T08:50:34;10.50;99.90
59923;DHT22;45778;51.142;3.732;2022-12-24T08:52:59;10.50;99.90
59923;DHT22;45778;51.142;3.732;2022-12-24T08:55:25;10.50;99.90
59923;DHT22;45778;51.142;3.732;2022-12-24T08:57:51;10.50;99.90
59923;DHT22;45778;51.142;3.732;2022-12-24T09:00:17;10.50;99.90
59923;DHT22;45778;51.142;3.732;2022-12-24T09:02:43;10.50;99.90
59923;DHT22;45778;51.142;3.732;2022-12-24T09:05:09;10.50;99.90
59923;DHT22;45778;51.142;3.732;2022-12-24T09:07:35;10.50;99.90
59923;DHT22;45778;51.142;3.732;2022-12-24T09:10:01;10.50;99.90
59923;DHT22;45778;51.142;3.732;2022-12-24T09:12:26;10.50;99.90
59923;DHT22;45778;51.142;3.732;2022-12-24T09:14:52;10.50;99.90
59923;DHT22;45778;51.142;3.732;2022-12-24T09:17:19;10.60;99.90
59923;DHT22;45778;51.142;3.732;2022-12-24T09:19:45;10.60;99.90
59923;DHT22;45778;51.142;3.732;2022-12-24T09:22:11;10.60;99.90
59923;DHT22;45778;51.142;3.732;2022-12-24T09:24:37;10.60;99.90
59923;DHT22;45778;51.142;3.732;2022-12-24T09:27:03;10.70;99.90
59923;DHT22;45778;51.142;3.732;2022-12-24T09:29:29;10.70;99.90
59923;DHT22;45778;51.142;3.732;2022-12-24T09:31:55;10.70;99.90
59923;DHT22;45778;51.142;3.732;2022-12-24T09:34:22;10.80;99.90
59923;DHT22;45778;51.142;3.732;2022-12-24T09:36:48;10.80;99.90
59923;DHT22;45778;51.142;3.732;2022-12-24T09:39:14;10.80;99.90
59923;DHT22;45778;51.142;3.732;2022-12-24T09:41:49;10.70;99.90
59923;DHT22;45778;51.142;3.732;2022-12-24T09:47:44;10.80;99.90
59923;DHT22;45778;51.142;3.732;2022-12-24T09:50:24;10.70;99.90
59923;DHT22;45778;51.142;3.732;2022-12-24T09:52:51;10.70;99.90
59923;DHT22;45778;51.142;3.732;2022-12-24T09:55:43;10.70;99.90
59923;DHT22;45778;51.142;3.732;2022-12-24T09:58:19;10.60;99.90
59923;DHT22;45778;51.142;3.732;2022-12-24T10:00:45;10.60;99.90
59923;DHT22;45778;51.142;3.732;2022-12-24T10:03:15;10.60;99.90
59923;DHT22;45778;51.142;3.732;2022-12-24T10:08:46;10.60;99.90
59923;DHT22;45778;51.142;3.732;2022-12-24T10:11:25;10.50;99.90
59923;DHT22;45778;51.142;3.732;2022-12-24T10:20:29;10.60;99.90
59923;DHT22;45778;51.142;3.732;2022-12-24T10:23:17;10.70;99.90
59923;DHT22;45778;51.142;3.732;2022-12-24T10:28:26;10.70;99.90
59923;DHT22;45778;51.142;3.732;2022-12-24T10:30:59;10.70;99.90
59923;DHT22;45778;51.142;3.732;2022-12-24T10:33:35;10.80;99.90
59923;DHT22;45778;51.142;3.732;2022-12-24T10:36:03;10.80;99.90
59923;DHT22;45778;51.142;3.732;2022-12-24T10:38:29;10.80;99.90
59923;DHT22;45778;51.142;3.732;2022-12-24T10:40:57;10.80;99.90
59923;DHT22;45778;51.142;3.732;2022-12-24T10:43:26;10.80;99.90
59923;DHT22;45778;51.142;3.732;2022-12-24T10:45:56;11.00;99.90
59923;DHT22;45778;51.142;3.732;2022-12-24T10:48:42;11.10;99.90
59923;DHT22;45778;51.142;3.732;2022-12-24T10:51:33;11.20;99.90
59923;DHT22;45778;51.142;3.732;2022-12-24T10:56:42;11.30;99.90
59923;DHT22;45778;51.142;3.732;2022-12-24T10:59:30;11.40;99.90
59923;DHT22;45778;51.142;3.732;2022-12-24T11:01:57;11.50;99.90
59923;DHT22;45778;51.142;3.732;2022-12-24T11:04:29;11.50;99.90
59923;DHT22;45778;51.142;3.732;2022-12-24T11:07:08;11.40;99.90
59923;DHT22;45778;51.142;3.732;2022-12-24T11:10:00;11.40;99.90
59923;DHT22;45778;51.142;3.732;2022-12-24T11:12:34;11.40;99.90
59923;DHT22;45778;51.142;3.732;2022-12-24T11:17:32;11.40;99.90
59923;DHT22;45778;51.142;3.732;2022-12-24T11:19:58;11.50;99.90
59923;DHT22;45778;51.142;3.732;2022-12-24T11:22:26;11.60;99.90
59923;DHT22;45778;51.142;3.732;2022-12-24T11:25:06;11.50;99.90
59923;DHT22;45778;51.142;3.732;2022-12-24T11:27:39;11.50;99.90
59923;DHT22;45778;51.142;3.732;2022-12-24T11:32:47;11.60;99.90
59923;DHT22;45778;51.142;3.732;2022-12-24T11:35:21;11.80;99.90
59923;DHT22;45778;51.142;3.732;2022-12-24T11:37:50;11.90;99.90
59923;DHT22;45778;51.142;3.732;2022-12-24T11:40:48;11.90;99.90
59923;DHT22;45778;51.142;3.732;2022-12-24T11:43:20;11.80;99.90
59923;DHT22;45778;51.142;3.732;2022-12-24T11:45:54;11.80;99.90
59923;DHT22;45778;51.142;3.732;2022-12-24T11:50:57;11.90;99.90
59923;DHT22;45778;51.142;3.732;2022-12-24T11:53:30;11.90;99.90
59923;DHT22;45778;51.142;3.732;2022-12-24T11:56:00;12.00;99.90
59923;DHT22;45778;51.142;3.732;2022-12-24T11:58:36;12.00;99.90
59923;DHT22;45778;51.142;3.732;2022-12-24T12:01:21;12.10;99.90
59923;DHT22;45778;51.142;3.732;2022-12-24T12:03:52;12.20;99.90
59923;DHT22;45778;51.142;3.732;2022-12-24T12:06:33;12.20;99.90
59923;DHT22;45778;51.142;3.732;2022-12-24T12:09:04;12.20;99.90
59923;DHT22;45778;51.142;3.732;2022-12-24T12:11:32;12.30;99.90
59923;DHT22;45778;51.142;3.732;2022-12-24T12:14:00;12.40;99.90
59923;DHT22;45778;51.142;3.732;2022-12-24T12:16:44;12.50;99.90
59923;DHT22;45778;51.142;3.732;2022-12-24T12:19:49;12.60;99.90
59923;DHT22;45778;51.142;3.732;2022-12-24T12:22:27;12.60;99.90
59923;DHT22;45778;51.142;3.732;2022-12-24T12:24:54;12.50;99.90
59923;DHT22;45778;51.142;3.732;2022-12-24T12:27:26;12.50;99.90
59923;DHT22;45778;51.142;3.732;2022-12-24T12:30:05;12.40;99.90
59923;DHT22;45778;51.142;3.732;2022-12-24T12:37:43;12.30;99.90
59923;DHT22;45778;51.142;3.732;2022-12-24T12:40:13;12.30;99.90
59923;DHT22;45778;51.142;3.732;2022-12-24T12:42:40;12.40;99.90
59923;DHT22;45778;51.142;3.732;2022-12-24T12:48:57;12.60;99.90
59923;DHT22;45778;51.142;3.732;2022-12-24T12:51:07;12.70;99.90
59923;DHT22;45778;51.142;3.732;2022-12-24T12:56:31;12.70;99.90
59923;DHT22;45778;51.142;3.732;2022-12-24T12:59:12;12.80;99.90
59923;DHT22;45778;51.142;3.732;2022-12-24T13:07:41;12.80;99.90
59923;DHT22;45778;51.142;3.732;2022-12-24T13:16:39;12.60;99.90
59923;DHT22;45778;51.142;3.732;2022-12-24T13:21:34;12.50;99.90
59923;DHT22;45778;51.142;3.732;2022-12-24T13:24:06;12.40;99.90
59923;DHT22;45778;51.142;3.732;2022-12-24T13:26:38;12.40;99.90
59923;DHT22;45778;51.142;3.732;2022-12-24T13:29:29;12.40;99.90
59923;DHT22;45778;51.142;3.732;2022-12-24T13:34:57;12.40;99.90
59923;DHT22;45778;51.142;3.732;2022-12-24T13:37:32;12.40;99.90
59923;DHT22;45778;51.142;3.732;2022-12-24T13:42:46;12.50;99.90
59923;DHT22;45778;51.142;3.732;2022-12-24T13:51:00;12.90;99.90
59923;DHT22;45778;51.142;3.732;2022-12-24T13:53:44;13.00;99.90
59923;DHT22;45778;51.142;3.732;2022-12-24T13:58:48;12.60;99.90
59923;DHT22;45778;51.142;3.732;2022-12-24T14:01:21;12.60;99.90
59923;DHT22;45778;51.142;3.732;2022-12-24T14:03:59;12.50;99.90
59923;DHT22;45778;51.142;3.732;2022-12-24T14:06:27;12.50;99.90
59923;DHT22;45778;51.142;3.732;2022-12-24T14:08:57;12.50;99.90
59923;DHT22;45778;51.142;3.732;2022-12-24T14:16:56;12.60;99.90
59923;DHT22;45778;51.142;3.732;2022-12-24T14:19:41;12.60;99.90
59923;DHT22;45778;51.142;3.732;2022-12-24T14:24:48;12.30;99.90
59923;DHT22;45778;51.142;3.732;2022-12-24T14:27:24;12.20;99.90
59923;DHT22;45778;51.142;3.732;2022-12-24T14:30:06;12.20;99.90
59923;DHT22;45778;51.142;3.732;2022-12-24T14:32:38;12.10;99.90
59923;DHT22;45778;51.142;3.732;2022-12-24T14:35:16;12.00;99.90
59923;DHT22;45778;51.142;3.732;2022-12-24T14:38:13;12.00;99.90
59923;DHT22;45778;51.142;3.732;2022-12-24T14:40:51;12.00;99.90
59923;DHT22;45778;51.142;3.732;2022-12-24T14:48:56;12.10;99.90
59923;DHT22;45778;51.142;3.732;2022-12-24T14:51:51;12.30;99.90
59923;DHT22;45778;51.142;3.732;2022-12-24T14:54:24;12.10;99.90
59923;DHT22;45778;51.142;3.732;2022-12-24T15:05:09;11.80;99.90
59923;DHT22;45778;51.142;3.732;2022-12-24T15:07:38;11.70;99.90
59923;DHT22;45778;51.142;3.732;2022-12-24T15:12:47;11.70;99.90
59923;DHT22;45778;51.142;3.732;2022-12-24T15:15:15;11.80;99.90
59923;DHT22;45778;51.142;3.732;2022-12-24T15:17:43;11.80;99.90
59923;DHT22;45778;51.142;3.732;2022-12-24T15:20:15;11.80;99.90
59923;DHT22;45778;51.142;3.732;2022-12-24T15:22:43;11.70;99.90
59923;DHT22;45778;51.142;3.732;2022-12-24T15:25:30;11.60;99.90
59923;DHT22;45778;51.142;3.732;2022-12-24T15:27:57;11.50;99.90
59923;DHT22;45778;51.142;3.732;2022-12-24T15:30:28;11.50;99.90
59923;DHT22;45778;51.142;3.732;2022-12-24T15:32:55;11.60;99.90
59923;DHT22;45778;51.142;3.732;2022-12-24T15:37:57;11.60;99.90
59923;DHT22;45778;51.142;3.732;2022-12-24T15:40:24;11.50;99.90
59923;DHT22;45778;51.142;3.732;2022-12-24T15:42:51;11.40;99.90
59923;DHT22;45778;51.142;3.732;2022-12-24T15:45:23;11.30;99.90
59923;DHT22;45778;51.142;3.732;2022-12-24T15:47:55;11.20;99.90
59923;DHT22;45778;51.142;3.732;2022-12-24T15:50:44;11.10;99.90
59923;DHT22;45778;51.142;3.732;2022-12-24T15:53:15;11.20;99.90
59923;DHT22;45778;51.142;3.732;2022-12-24T15:55:46;11.20;99.90
59923;DHT22;45778;51.142;3.732;2022-12-24T15:58:24;11.10;99.90
59923;DHT22;45778;51.142;3.732;2022-12-24T16:01:23;11.00;99.90
59923;DHT22;45778;51.142;3.732;2022-12-24T16:06:16;11.00;99.90
59923;DHT22;45778;51.142;3.732;2022-12-24T16:08:43;11.00;99.90
59923;DHT22;45778;51.142;3.732;2022-12-24T16:11:17;11.00;99.90
59923;DHT22;45778;51.142;3.732;2022-12-24T16:16:17;10.90;99.90
59923;DHT22;45778;51.142;3.732;2022-12-24T16:21:31;11.00;99.90
59923;DHT22;45778;51.142;3.732;2022-12-24T16:24:19;11.10;99.90
59923;DHT22;45778;51.142;3.732;2022-12-24T16:26:46;11.10;99.90
59923;DHT22;45778;51.142;3.732;2022-12-24T16:29:13;11.10;99.90
59923;DHT22;45778;51.142;3.732;2022-12-24T16:31:54;11.10;99.90
59923;DHT22;45778;51.142;3.732;2022-12-24T16:34:24;11.20;99.90
59923;DHT22;45778;51.142;3.732;2022-12-24T16:36:50;11.20;99.90
59923;DHT22;45778;51.142;3.732;2022-12-24T16:39:22;11.20;99.90
59923;DHT22;45778;51.142;3.732;2022-12-24T16:41:48;11.20;99.90
59923;DHT22;45778;51.142;3.732;2022-12-24T16:44:32;11.20;99.90
59923;DHT22;45778;51.142;3.732;2022-12-24T16:46:59;11.20;99.90
59923;DHT22;45778;51.142;3.732;2022-12-24T16:49:25;11.30;99.90
59923;DHT22;45778;51.142;3.732;2022-12-24T16:51:51;11.20;99.90
59923;DHT22;45778;51.142;3.732;2022-12-24T16:54:17;11.30;99.90
59923;DHT22;45778;51.142;3.732;2022-12-24T16:56:43;11.30;99.90
59923;DHT22;45778;51.142;3.732;2022-12-24T16:59:20;11.20;99.90
59923;DHT22;45778;51.142;3.732;2022-12-24T17:01:47;11.20;99.90
59923;DHT22;45778;51.142;3.732;2022-12-24T17:04:13;11.20;99.90
59923;DHT22;45778;51.142;3.732;2022-12-24T17:06:39;11.20;99.90
59923;DHT22;45778;51.142;3.732;2022-12-24T17:09:06;11.10;99.90
59923;DHT22;45778;51.142;3.732;2022-12-24T17:11:32;11.10;99.90
59923;DHT22;45778;51.142;3.732;2022-12-24T17:13:58;11.10;99.90
59923;DHT22;45778;51.142;3.732;2022-12-24T17:16:24;11.10;99.90
59923;DHT22;45778;51.142;3.732;2022-12-24T17:18:49;11.10;99.90
59923;DHT22;45778;51.142;3.732;2022-12-24T17:21:16;11.10;99.90
59923;DHT22;45778;51.142;3.732;2022-12-24T17:23:42;10.90;99.90
59923;DHT22;45778;51.142;3.732;2022-12-24T17:26:10;10.80;99.90
59923;DHT22;45778;51.142;3.732;2022-12-24T17:28:36;10.80;99.90
59923;DHT22;45778;51.142;3.732;2022-12-24T17:31:20;10.90;99.90
59923;DHT22;45778;51.142;3.732;2022-12-24T17:33:48;10.90;99.90
59923;DHT22;45778;51.142;3.732;2022-12-24T17:36:14;10.90;99.90
59923;DHT22;45778;51.142;3.732;2022-12-24T17:38:40;10.90;99.90
59923;DHT22;45778;51.142;3.732;2022-12-24T17:41:11;11.00;99.90
59923;DHT22;45778;51.142;3.732;2022-12-24T17:43:37;10.90;99.90
59923;DHT22;45778;51.142;3.732;2022-12-24T17:46:10;11.00;99.90